Terminal Aerodrome Forecast
Issued by NWS

Home | Current Version | Previous Version | Text Only | Print | Product List | Glossary On
Versions: 1 2 3 4 5 6 7 8 9 10 11 12
000
FTUS45 KRIW 171100
TAFCPR
TAF
KCPR 171121Z 1712/1812 26008KT P6SM VCSH SCT120
     FM171400 24008KT P6SM FEW120 SCT250
     FM172000 27010KT P6SM SCT120
     FM172300 31011KT P6SM SCT110
     FM180200 VRB05KT P6SM SCT110
     FM180700 24006KT P6SM SCT120=

USA.gov is the U.S. government's official web portal to all federal, state and local government web resources and services.